createdAt,value
2023-04-28T00:02:02.173Z,1.80
2023-04-28T00:04:29.213Z,1.48
2023-04-28T00:06:55.883Z,2.58
2023-04-28T00:09:22.351Z,1.77
2023-04-28T00:11:48.875Z,2.20
2023-04-28T00:14:15.549Z,1.90
2023-04-28T00:16:42.605Z,1.45
2023-04-28T00:19:09.557Z,2.40
2023-04-28T00:21:35.991Z,2.10
2023-04-28T00:24:02.413Z,1.65
2023-04-28T00:26:28.827Z,1.88
2023-04-28T00:28:55.321Z,1.55
2023-04-28T00:31:21.864Z,1.80
2023-04-28T00:33:48.346Z,1.63
2023-04-28T00:36:14.770Z,1.90
2023-04-28T00:38:41.286Z,1.58
2023-04-28T00:41:11.014Z,1.75
2023-04-28T00:43:50.409Z,1.83
2023-04-28T00:46:27.736Z,1.55
2023-04-28T00:48:54.240Z,1.48
2023-04-28T00:51:21.305Z,2.00
2023-04-28T00:53:48.201Z,1.63
2023-04-28T00:56:14.635Z,2.08
2023-04-28T00:58:41.788Z,1.90
2023-04-28T01:01:09.665Z,1.75
2023-04-28T01:03:38.640Z,1.83
2023-04-28T01:06:06.338Z,1.70
2023-04-28T01:08:33.623Z,1.85
2023-04-28T01:11:00.407Z,1.90
2023-04-28T01:13:26.875Z,1.55
2023-04-28T01:15:53.648Z,1.63
2023-04-28T01:18:20.121Z,1.55
2023-04-28T01:20:46.689Z,1.77
2023-04-28T01:23:13.941Z,1.42
2023-04-28T01:25:41.139Z,1.67
2023-04-28T01:28:08.316Z,1.13
2023-04-28T01:30:35.630Z,1.30
2023-04-28T01:33:03.152Z,1.80
2023-04-28T01:35:30.481Z,1.77
2023-04-28T01:37:56.985Z,1.67
2023-04-28T01:40:23.536Z,1.30
2023-04-28T01:42:50.013Z,1.35
2023-04-28T01:45:16.676Z,1.40
2023-04-28T01:47:43.126Z,1.60
2023-04-28T01:50:09.819Z,1.90
2023-04-28T01:52:36.261Z,1.85
2023-04-28T01:55:02.704Z,1.80
2023-04-28T01:57:29.230Z,1.80
2023-04-28T01:59:55.980Z,1.52
2023-04-28T02:02:22.492Z,1.48
2023-04-28T02:04:49.057Z,1.50
2023-04-28T02:07:15.639Z,2.08
2023-04-28T02:09:42.147Z,1.70
2023-04-28T02:12:08.679Z,1.20
2023-04-28T02:14:35.140Z,1.67
2023-04-28T02:17:03.240Z,1.75
2023-04-28T02:19:29.834Z,1.50
2023-04-28T02:21:56.327Z,1.63
2023-04-28T02:24:23.040Z,1.52
2023-04-28T02:26:49.503Z,1.55
2023-04-28T02:29:16.149Z,2.08
2023-04-28T02:31:42.687Z,1.42
2023-04-28T02:34:09.239Z,1.60
2023-04-28T02:36:35.906Z,2.45
2023-04-28T02:39:02.426Z,1.83
2023-04-28T02:41:30.975Z,1.65
2023-04-28T02:43:57.460Z,2.00
2023-04-28T02:46:24.015Z,1.58
2023-04-28T02:48:50.624Z,1.65
2023-04-28T02:51:17.139Z,1.95
2023-04-28T02:53:43.617Z,1.85
2023-04-28T02:56:10.097Z,2.20
2023-04-28T02:58:36.550Z,1.90
2023-04-28T03:01:03.125Z,1.80
2023-04-28T03:03:29.756Z,2.45
2023-04-28T03:05:57.025Z,1.90
2023-04-28T03:08:23.761Z,2.33
2023-04-28T03:10:50.208Z,1.80
2023-04-28T03:13:16.616Z,2.17
2023-04-28T03:15:43.129Z,1.80
2023-04-28T03:18:09.599Z,2.35
2023-04-28T03:20:36.474Z,2.13
2023-04-28T03:23:02.966Z,2.00
2023-04-28T03:25:29.508Z,1.98
2023-04-28T03:27:56.039Z,1.83
2023-04-28T03:30:22.595Z,1.75
2023-04-28T03:32:49.062Z,2.40
2023-04-28T03:35:15.582Z,1.90
2023-04-28T03:37:44.345Z,1.65
2023-04-28T03:40:11.505Z,2.10
2023-04-28T03:42:38.000Z,2.15
2023-04-28T03:45:04.736Z,2.00
2023-04-28T03:47:31.181Z,2.17
2023-04-28T03:49:58.968Z,2.28
2023-04-28T03:52:26.259Z,2.03
2023-04-28T03:54:52.787Z,2.38
2023-04-28T03:57:19.284Z,2.35
2023-04-28T03:59:45.878Z,1.92
2023-04-28T04:02:12.378Z,2.13
2023-04-28T04:04:39.127Z,2.45
2023-04-28T04:07:06.362Z,2.22
2023-04-28T04:09:32.859Z,2.00
2023-04-28T04:12:01.148Z,2.33
2023-04-28T04:14:27.694Z,2.10
2023-04-28T04:16:55.438Z,2.20
2023-04-28T04:19:24.050Z,2.65
2023-04-28T04:21:50.712Z,1.90
2023-04-28T04:24:17.323Z,2.47
2023-04-28T04:26:43.981Z,1.85
2023-04-28T04:29:10.997Z,2.42
2023-04-28T04:31:37.763Z,2.10
2023-04-28T04:34:04.205Z,2.15
2023-04-28T04:36:30.718Z,2.13
2023-04-28T04:38:57.191Z,3.05
2023-04-28T04:41:23.668Z,1.92
2023-04-28T04:43:50.287Z,2.22
2023-04-28T04:46:17.102Z,2.42
2023-04-28T04:48:43.661Z,2.63
2023-04-28T04:51:10.134Z,1.98
2023-04-28T04:53:36.764Z,1.90
2023-04-28T04:56:03.522Z,2.45
2023-04-28T04:58:30.091Z,2.08
2023-04-28T05:00:56.528Z,2.33
2023-04-28T05:03:23.253Z,2.22
2023-04-28T05:05:49.825Z,2.50
2023-04-28T05:08:16.311Z,2.03
2023-04-28T05:10:42.808Z,2.35
2023-04-28T05:13:09.246Z,1.85
2023-04-28T05:15:35.787Z,2.20
2023-04-28T05:18:08.911Z,2.03
2023-04-28T05:20:35.529Z,2.22
2023-04-28T05:23:02.749Z,2.50
2023-04-28T05:25:29.209Z,2.08
2023-04-28T05:27:57.388Z,2.17
2023-04-28T05:30:23.899Z,2.15
2023-04-28T05:32:50.416Z,2.47
2023-04-28T05:35:17.561Z,2.03
2023-04-28T05:37:45.132Z,2.33
2023-04-28T05:40:11.702Z,2.22
2023-04-28T05:42:38.174Z,2.35
2023-04-28T05:45:05.865Z,2.33
2023-04-28T05:47:32.634Z,2.42
2023-04-28T05:49:59.096Z,3.03
2023-04-28T05:52:25.616Z,1.90
2023-04-28T05:54:52.092Z,2.10
2023-04-28T05:57:18.594Z,2.25
2023-04-28T05:59:45.235Z,2.30
2023-04-28T06:02:11.740Z,2.53
2023-04-28T06:04:39.380Z,2.28
2023-04-28T06:07:06.054Z,2.40
2023-04-28T06:09:32.570Z,2.08
2023-04-28T06:11:59.035Z,2.78
2023-04-28T06:14:25.746Z,1.90
2023-04-28T06:16:55.479Z,2.00
2023-04-28T06:19:22.012Z,1.90
2023-04-28T06:21:51.535Z,2.85
2023-04-28T06:24:18.304Z,2.20
2023-04-28T06:26:45.193Z,2.08
2023-04-28T06:29:11.658Z,1.77
2023-04-28T06:31:38.191Z,1.65
2023-04-28T06:34:04.645Z,2.38
2023-04-28T06:36:31.381Z,2.05
2023-04-28T06:38:58.794Z,2.38
2023-04-28T06:41:25.714Z,2.30
2023-04-28T06:43:52.296Z,1.85
2023-04-28T06:46:18.830Z,2.75
2023-04-28T06:48:45.449Z,2.40
2023-04-28T06:51:11.930Z,2.60
2023-04-28T06:53:38.552Z,2.53
2023-04-28T06:56:06.005Z,2.10
2023-04-28T06:58:32.746Z,2.20
2023-04-28T07:01:00.761Z,2.33
2023-04-28T07:03:27.886Z,2.75
2023-04-28T07:05:54.448Z,2.58
2023-04-28T07:08:21.068Z,2.17
2023-04-28T07:10:47.510Z,1.98
2023-04-28T07:13:14.045Z,2.30
2023-04-28T07:15:40.648Z,1.95
2023-04-28T07:18:07.557Z,1.95
2023-04-28T07:20:34.129Z,2.22
2023-04-28T07:23:00.585Z,2.00
2023-04-28T07:25:27.096Z,1.90
2023-04-28T07:27:54.216Z,1.90
2023-04-28T07:30:27.830Z,1.85
2023-04-28T07:32:55.314Z,2.22
2023-04-28T07:35:22.222Z,1.88
2023-04-28T07:37:48.831Z,1.75
2023-04-28T07:40:15.718Z,2.42
2023-04-28T07:42:42.357Z,1.75
2023-04-28T07:45:09.095Z,1.95
2023-04-28T07:47:36.497Z,1.98
2023-04-28T07:50:05.163Z,1.63
2023-04-28T07:52:34.758Z,1.92
2023-04-28T07:55:02.363Z,2.05
2023-04-28T07:57:31.718Z,2.20
2023-04-28T07:59:58.230Z,2.20
2023-04-28T08:02:26.158Z,1.83
2023-04-28T08:04:53.033Z,1.90
2023-04-28T08:07:19.635Z,2.00
2023-04-28T08:09:47.268Z,1.50
2023-04-28T08:12:14.738Z,2.17
2023-04-28T08:14:41.446Z,2.13
2023-04-28T08:17:08.377Z,1.65
2023-04-28T08:19:35.263Z,1.65
2023-04-28T08:22:05.729Z,2.10
2023-04-28T08:24:34.312Z,2.13
2023-04-28T08:27:03.186Z,2.05
2023-04-28T08:29:30.549Z,1.75
2023-04-28T08:31:57.137Z,1.90
2023-04-28T08:34:24.145Z,1.90
2023-04-28T08:36:51.561Z,1.88
2023-04-28T08:39:18.036Z,2.05
2023-04-28T08:41:44.585Z,1.98
2023-04-28T08:44:11.818Z,2.00
2023-04-28T08:46:42.221Z,2.20
2023-04-28T08:49:16.570Z,1.98
2023-04-28T08:51:50.402Z,2.20
2023-04-28T08:54:28.988Z,2.30
2023-04-28T08:56:59.312Z,1.55
2023-04-28T08:59:25.844Z,1.80
2023-04-28T09:01:52.344Z,2.13
2023-04-28T09:04:20.111Z,1.65
2023-04-28T09:06:47.262Z,2.15
2023-04-28T09:09:23.286Z,2.10
2023-04-28T09:12:03.869Z,2.30
2023-04-28T09:14:35.596Z,1.98
2023-04-28T09:17:03.076Z,2.08
2023-04-28T09:19:36.453Z,2.50
2023-04-28T09:22:13.778Z,2.20
2023-04-28T09:24:50.408Z,2.08
2023-04-28T09:27:18.581Z,2.28
2023-04-28T09:29:52.967Z,2.03
2023-04-28T09:32:21.682Z,2.22
2023-04-28T09:34:50.454Z,2.42
2023-04-28T09:37:17.651Z,2.35
2023-04-28T09:39:47.985Z,2.38
2023-04-28T09:42:43.018Z,2.25
2023-04-28T09:45:18.519Z,2.70
2023-04-28T09:47:47.076Z,2.28
2023-04-28T09:50:17.210Z,2.50
2023-04-28T09:52:46.040Z,2.65
2023-04-28T09:55:12.958Z,2.88
2023-04-28T09:57:40.076Z,2.80
2023-04-28T10:00:09.134Z,2.70
2023-04-28T10:05:09.370Z,3.00
2023-04-28T10:07:36.887Z,2.42
2023-04-28T10:10:04.144Z,2.47
2023-04-28T10:12:30.729Z,2.53
2023-04-28T10:14:58.288Z,3.05
2023-04-28T10:17:29.528Z,2.67
2023-04-28T10:19:57.083Z,2.55
2023-04-28T10:22:53.490Z,2.88
2023-04-28T10:25:34.218Z,2.60
2023-04-28T10:28:01.183Z,2.70
2023-04-28T10:30:31.409Z,2.83
2023-04-28T10:33:13.331Z,2.63
2023-04-28T10:35:43.701Z,2.83
2023-04-28T10:38:23.443Z,2.60
2023-04-28T10:41:01.528Z,2.63
2023-04-28T10:43:28.717Z,2.45
2023-04-28T10:46:01.370Z,2.75
2023-04-28T10:48:34.079Z,2.63
2023-04-28T10:51:04.110Z,2.90
2023-04-28T10:53:43.606Z,2.80
2023-04-28T10:56:14.817Z,2.92
2023-04-28T10:58:46.422Z,2.88
2023-04-28T11:01:18.761Z,2.67
2023-04-28T11:03:48.148Z,2.45
2023-04-28T11:06:32.378Z,3.00
2023-04-28T11:09:00.719Z,2.85
2023-04-28T11:11:27.687Z,2.63
2023-04-28T11:14:19.148Z,2.65
2023-04-28T11:16:49.312Z,2.85
2023-04-28T11:21:43.345Z,3.72
2023-04-28T11:24:11.137Z,3.28
2023-04-28T11:26:38.981Z,2.97
2023-04-28T11:29:05.936Z,2.70
2023-04-28T11:31:32.563Z,2.80
2023-04-28T11:34:01.279Z,3.05
2023-04-28T11:36:31.886Z,2.50
2023-04-28T11:38:59.480Z,2.75
2023-04-28T11:41:26.514Z,3.35
2023-04-28T11:43:53.525Z,3.05
2023-04-28T11:46:22.265Z,3.60
2023-04-28T11:48:49.392Z,2.97
2023-04-28T11:51:38.646Z,3.08
2023-04-28T11:54:11.915Z,3.13
2023-04-28T11:56:39.528Z,3.42
2023-04-28T11:59:10.685Z,3.40
2023-04-28T12:01:51.870Z,2.83
2023-04-28T12:04:32.074Z,3.20
2023-04-28T12:07:04.961Z,3.08
2023-04-28T12:09:33.153Z,3.22
2023-04-28T12:12:03.032Z,3.28
2023-04-28T12:14:30.235Z,2.80
2023-04-28T12:16:57.025Z,2.90
2023-04-28T12:19:23.600Z,2.80
2023-04-28T12:22:00.405Z,3.20
2023-04-28T12:24:27.152Z,2.92
2023-04-28T12:26:54.482Z,3.13
2023-04-28T12:29:51.004Z,3.50
2023-04-28T12:32:18.627Z,3.72
2023-04-28T12:34:46.376Z,3.03
2023-04-28T12:37:12.883Z,3.15
2023-04-28T12:39:40.714Z,3.25
2023-04-28T12:42:07.934Z,3.13
2023-04-28T12:44:36.018Z,3.15
2023-04-28T12:47:11.530Z,3.00
2023-04-28T12:49:38.397Z,3.22
2023-04-28T12:52:05.750Z,2.90
2023-04-28T12:54:32.287Z,3.35
2023-04-28T12:56:58.815Z,3.33
2023-04-28T12:59:25.582Z,3.25
2023-04-28T13:01:52.134Z,3.20
2023-04-28T13:04:19.484Z,2.75
2023-04-28T13:06:46.385Z,3.35
2023-04-28T13:09:16.126Z,3.22
2023-04-28T13:11:42.954Z,3.35
2023-04-28T13:14:09.564Z,2.70
2023-04-28T13:16:36.176Z,3.00
2023-04-28T13:19:04.265Z,2.85
2023-04-28T13:21:30.718Z,3.10
2023-04-28T13:23:57.321Z,2.45
2023-04-28T13:26:26.919Z,2.50
2023-04-28T13:28:53.484Z,2.55
2023-04-28T13:31:20.169Z,3.03
2023-04-28T13:33:46.748Z,3.10
2023-04-28T13:36:16.239Z,2.55
2023-04-28T13:38:45.987Z,2.95
2023-04-28T13:41:12.631Z,3.10
2023-04-28T13:43:39.082Z,3.00
2023-04-28T13:46:08.326Z,3.28
2023-04-28T13:48:36.339Z,3.38
2023-04-28T13:51:04.050Z,2.88
2023-04-28T13:53:31.539Z,3.08
2023-04-28T13:55:58.590Z,3.42
2023-04-28T13:58:29.077Z,3.22
2023-04-28T14:00:57.290Z,2.78
2023-04-28T14:03:24.670Z,3.13
2023-04-28T14:05:52.126Z,3.90
2023-04-28T14:08:20.593Z,3.58
2023-04-28T14:10:48.305Z,3.80
2023-04-28T14:13:14.877Z,3.95
2023-04-28T14:15:54.638Z,3.50
2023-04-28T14:18:24.453Z,3.10
2023-04-28T14:20:50.970Z,2.88
2023-04-28T14:23:17.536Z,3.30
2023-04-28T14:25:44.055Z,3.33
2023-04-28T14:28:10.584Z,3.13
2023-04-28T14:30:37.171Z,2.95
2023-04-28T14:33:03.824Z,3.20
2023-04-28T14:35:31.705Z,3.80
2023-04-28T14:37:58.389Z,3.33
2023-04-28T14:40:25.596Z,3.60
2023-04-28T14:42:52.808Z,3.40
2023-04-28T14:45:19.565Z,3.50
2023-04-28T14:47:46.099Z,3.58
2023-04-28T14:50:13.944Z,3.38
2023-04-28T14:52:41.181Z,3.17
2023-04-28T14:55:08.116Z,3.20
2023-04-28T14:57:35.027Z,2.80
2023-04-28T15:00:02.463Z,3.30
2023-04-28T15:02:29.752Z,3.08
2023-04-28T15:04:57.283Z,3.13
2023-04-28T15:07:26.488Z,3.65
2023-04-28T15:09:52.934Z,3.35
2023-04-28T15:12:20.966Z,3.35
2023-04-28T15:14:47.665Z,3.30
2023-04-28T15:17:14.250Z,3.28
2023-04-28T15:19:40.689Z,3.58
2023-04-28T15:22:07.206Z,3.35
2023-04-28T15:24:33.677Z,4.15
2023-04-28T15:27:00.110Z,3.50
2023-04-28T15:29:26.643Z,3.83
2023-04-28T15:31:53.617Z,3.53
2023-04-28T15:34:20.158Z,4.05
2023-04-28T15:36:46.713Z,4.03
2023-04-28T15:39:13.570Z,4.00
2023-04-28T15:41:40.097Z,4.00
2023-04-28T15:44:07.349Z,3.90
2023-04-28T15:46:35.964Z,4.32
2023-04-28T15:49:02.733Z,4.30
2023-04-28T15:51:29.560Z,4.72
2023-04-28T15:53:57.050Z,4.05
2023-04-28T15:56:23.845Z,4.07
2023-04-28T15:58:50.849Z,4.45
2023-04-28T16:01:18.436Z,4.97
2023-04-28T16:03:47.266Z,4.22
2023-04-28T16:06:14.741Z,3.97
2023-04-28T16:08:41.232Z,4.22
2023-04-28T16:11:08.341Z,4.05
2023-04-28T16:13:37.074Z,4.20
2023-04-28T16:16:04.433Z,4.13
2023-04-28T16:18:31.130Z,3.97
2023-04-28T16:20:57.604Z,5.30
2023-04-28T16:23:24.078Z,4.22
2023-04-28T16:25:50.862Z,4.90
2023-04-28T16:28:17.753Z,4.03
2023-04-28T16:30:44.522Z,4.60
2023-04-28T16:33:11.259Z,4.68
2023-04-28T16:35:37.819Z,3.85
2023-04-28T16:38:04.236Z,4.53
2023-04-28T16:40:30.966Z,4.53
2023-04-28T16:42:57.569Z,4.35
2023-04-28T16:45:24.069Z,4.53
2023-04-28T16:47:50.641Z,5.00
2023-04-28T16:50:17.729Z,4.53
2023-04-28T16:52:44.863Z,4.78
2023-04-28T16:55:11.752Z,4.70
2023-04-28T16:57:38.386Z,5.32
2023-04-28T17:00:06.240Z,4.90
2023-04-28T17:02:33.328Z,5.10
2023-04-28T17:05:00.279Z,4.80
2023-04-28T17:07:26.861Z,4.93
2023-04-28T17:09:53.725Z,4.65
2023-04-28T17:12:21.068Z,5.03
2023-04-28T17:14:47.776Z,4.85
2023-04-28T17:17:14.351Z,5.43
2023-04-28T17:19:42.125Z,6.75
2023-04-28T17:22:08.779Z,6.32
2023-04-28T17:24:35.279Z,6.60
2023-04-28T17:27:02.045Z,7.00
2023-04-28T17:29:28.498Z,6.38
2023-04-28T17:31:55.175Z,6.93
2023-04-28T17:34:21.693Z,7.10
2023-04-28T17:36:48.247Z,7.68
2023-04-28T17:39:16.416Z,8.85
2023-04-28T17:41:43.628Z,7.68
2023-04-28T17:44:10.118Z,8.45
2023-04-28T17:46:38.571Z,7.35
2023-04-28T17:49:05.380Z,7.45
2023-04-28T17:51:32.490Z,7.70
2023-04-28T17:53:59.414Z,7.45
2023-04-28T17:56:26.318Z,7.40
2023-04-28T17:58:52.834Z,6.97
2023-04-28T18:01:19.608Z,6.90
2023-04-28T18:03:46.663Z,8.25
2023-04-28T18:06:13.798Z,7.63
2023-04-28T18:08:40.907Z,6.63
2023-04-28T18:11:09.885Z,6.93
2023-04-28T18:13:36.485Z,7.10
2023-04-28T18:16:04.930Z,7.35
2023-04-28T18:18:35.351Z,7.65
2023-04-28T18:23:30.386Z,6.50
2023-04-28T18:25:57.043Z,6.78
2023-04-28T18:28:23.670Z,7.82
2023-04-28T18:30:50.163Z,7.63
2023-04-28T18:33:22.767Z,6.80
2023-04-28T18:35:58.572Z,6.57
2023-04-28T18:38:25.029Z,6.60
2023-04-28T18:40:51.501Z,6.85
2023-04-28T18:43:18.198Z,6.63
2023-04-28T18:45:44.960Z,6.63
2023-04-28T18:48:11.504Z,6.65
2023-04-28T18:50:38.171Z,6.15
2023-04-28T18:53:05.085Z,6.32
2023-04-28T18:55:34.572Z,6.35
2023-04-28T18:58:04.043Z,5.47
2023-04-28T19:00:31.415Z,5.88
2023-04-28T19:02:57.989Z,5.50
2023-04-28T19:05:24.638Z,5.75
2023-04-28T19:07:51.102Z,4.88
2023-04-28T19:10:17.649Z,5.63
2023-04-28T19:12:44.121Z,6.13
2023-04-28T19:15:10.768Z,4.90
2023-04-28T19:17:37.319Z,5.50
2023-04-28T19:20:04.158Z,5.18
2023-04-28T19:22:37.123Z,5.43
2023-04-28T19:25:04.632Z,5.32
2023-04-28T19:27:33.106Z,5.80
2023-04-28T19:30:00.497Z,5.25
2023-04-28T19:32:27.434Z,5.03
2023-04-28T19:34:55.545Z,5.28
2023-04-28T19:37:22.681Z,5.00
2023-04-28T19:39:50.651Z,4.80
2023-04-28T19:42:17.665Z,5.82
2023-04-28T19:44:44.330Z,5.38
2023-04-28T19:47:12.384Z,6.35
2023-04-28T19:49:41.321Z,6.28
2023-04-28T19:52:10.170Z,5.35
2023-04-28T19:54:39.549Z,5.50
2023-04-28T19:57:06.053Z,5.90
2023-04-28T19:59:32.609Z,4.63
2023-04-28T20:01:59.091Z,5.15
2023-04-28T20:04:26.007Z,5.03
2023-04-28T20:06:53.587Z,4.90
2023-04-28T20:09:20.076Z,5.10
2023-04-28T20:11:46.908Z,4.97
2023-04-28T20:14:13.882Z,4.88
2023-04-28T20:16:40.411Z,5.15
2023-04-28T20:19:08.076Z,4.78
2023-04-28T20:21:35.385Z,4.30
2023-04-28T20:24:02.202Z,5.10
2023-04-28T20:26:28.744Z,5.45
2023-04-28T20:28:57.146Z,4.70
2023-04-28T20:31:23.796Z,4.97
2023-04-28T20:33:50.661Z,5.00
2023-04-28T20:36:17.068Z,5.00
2023-04-28T20:38:43.701Z,5.45
2023-04-28T20:41:10.947Z,4.03
2023-04-28T20:43:37.948Z,4.22
2023-04-28T20:46:10.105Z,4.13
2023-04-28T20:48:36.850Z,4.82
2023-04-28T20:51:03.752Z,5.40
2023-04-28T20:53:32.005Z,4.32
2023-04-28T20:55:59.438Z,5.22
2023-04-28T20:58:26.098Z,5.35
2023-04-28T21:00:53.195Z,4.85
2023-04-28T21:03:23.493Z,5.82
2023-04-28T21:05:50.324Z,5.47
2023-04-28T21:08:17.004Z,5.68
2023-04-28T21:10:43.551Z,5.00
2023-04-28T21:13:10.334Z,5.70
2023-04-28T21:15:37.905Z,5.78
2023-04-28T21:18:04.694Z,5.63
2023-04-28T21:20:31.327Z,5.30
2023-04-28T21:22:57.878Z,5.47
2023-04-28T21:25:25.470Z,5.40
2023-04-28T21:27:53.066Z,5.47
2023-04-28T21:30:20.677Z,5.18
2023-04-28T21:32:47.364Z,4.78
2023-04-28T21:35:14.334Z,5.35
2023-04-28T21:37:40.873Z,5.75
2023-04-28T21:40:08.693Z,5.38
2023-04-28T21:42:35.411Z,5.25
2023-04-28T21:45:01.918Z,4.60
2023-04-28T21:47:28.467Z,4.55
2023-04-28T21:49:54.989Z,5.18
2023-04-28T21:52:21.483Z,4.50
2023-04-28T21:54:48.113Z,4.32
2023-04-28T21:57:15.813Z,4.38
2023-04-28T21:59:42.419Z,5.07
2023-04-28T22:02:09.130Z,4.78
2023-04-28T22:04:36.024Z,4.75
2023-04-28T22:07:03.804Z,4.45
2023-04-28T22:09:31.180Z,4.13
2023-04-28T22:11:57.640Z,4.68
2023-04-28T22:14:39.580Z,4.50
2023-04-28T22:17:07.461Z,4.72
2023-04-28T22:19:34.095Z,4.53
2023-04-28T22:22:00.663Z,4.93
2023-04-28T22:24:27.882Z,5.15
2023-04-28T22:26:55.008Z,4.18
2023-04-28T22:29:21.883Z,4.63
2023-04-28T22:31:48.527Z,4.47
2023-04-28T22:34:15.071Z,4.78
2023-04-28T22:36:42.701Z,4.45
2023-04-28T22:39:09.162Z,4.70
2023-04-28T22:41:35.554Z,4.28
2023-04-28T22:44:01.973Z,5.28
2023-04-28T22:46:28.780Z,4.47
2023-04-28T22:48:55.758Z,4.38
2023-04-28T22:51:22.291Z,4.45
2023-04-28T22:53:48.769Z,4.88
2023-04-28T22:56:15.816Z,4.15
2023-04-28T22:58:42.456Z,4.53
2023-04-28T23:01:09.310Z,4.95
2023-04-28T23:03:36.161Z,4.40
2023-04-28T23:06:02.823Z,4.15
2023-04-28T23:08:29.251Z,4.07
2023-04-28T23:10:58.788Z,4.18
2023-04-28T23:13:25.454Z,4.25
2023-04-28T23:15:52.036Z,4.38
2023-04-28T23:18:18.871Z,4.40
2023-04-28T23:20:48.917Z,4.47
2023-04-28T23:23:16.031Z,4.40
2023-04-28T23:25:45.348Z,4.47
2023-04-28T23:28:11.853Z,4.38
2023-04-28T23:30:38.340Z,4.32
2023-04-28T23:33:05.122Z,4.07
2023-04-28T23:35:33.113Z,4.38
2023-04-28T23:37:59.583Z,4.35
2023-04-28T23:40:26.794Z,4.22
2023-04-28T23:42:53.485Z,4.40
2023-04-28T23:45:19.976Z,4.60
2023-04-28T23:47:47.213Z,4.20
2023-04-28T23:50:14.044Z,3.47
2023-04-28T23:52:40.556Z,4.43
2023-04-28T23:55:12.951Z,4.38
2023-04-28T23:57:39.990Z,4.03
